Terminal Aerodrome Forecast
Issued by NWS Portland, OR

Home | Current Version | Previous Version | Text Only | Print | Product List | Glossary On
Versions: 1 2 3 4 5 6 7 8 9 10 11 12 13 14 15 16 17
000
FTUS46 KPQR 200254 AAA
TAFTTD
TAF AMD
KTTD 200254Z 2003/2024 18005KT P6SM SCT022 BKN040 OVC070
     FM201000 22004KT P6SM -SHRA SCT022 BKN035 OVC050
     FM201400 19004KT P6SM VCSH BKN018 OVC035
     FM201800 17008KT 6SM -RA OVC025=

USA.gov is the U.S. government's official web portal to all federal, state and local government web resources and services.